Time;durP1;ratioP1;P1;durP2;ratioP2;P2;SDS_P1;SDS_P2;PMS_P1;PMS_P2;Temp;Humidity;BMP_temperature;BMP_pressure;BME280_temperature;BME280_humidity;BME280_pressure;Samples;Min_cycle;Max_cycle;Signal;HPM_P1;HPM_P2
2021/12/08 00:01:09;;;;;;;2.83;2.08;;;8.70;79.50;;;;;;5162606;27;20502;-56
2021/12/08 00:03:35;;;;;;;2.85;1.92;;;8.70;79.50;;;;;;5155738;27;20050;-56
2021/12/08 00:06:01;;;;;;;3.10;2.17;;;8.70;79.50;;;;;;5156058;27;20046;-56
2021/12/08 00:08:29;;;;;;;3.53;2.30;;;8.70;79.50;;;;;;5156995;27;20046;-57
2021/12/08 00:13:31;;;;;;;3.15;2.40;;;8.70;79.60;;;;;;5168699;27;20050;-56
2021/12/08 00:15:59;;;;;;;3.42;2.03;;;8.70;79.60;;;;;;5175984;27;20034;-56
2021/12/08 00:18:27;;;;;;;3.72;2.00;;;8.70;79.50;;;;;;5174894;27;20042;-55
2021/12/08 00:20:56;;;;;;;3.05;1.90;;;8.70;79.60;;;;;;5176001;27;20056;-55
2021/12/08 00:23:24;;;;;;;3.90;2.22;;;8.70;79.50;;;;;;5176405;27;20160;-57
2021/12/08 00:25:51;;;;;;;3.30;2.20;;;8.70;79.50;;;;;;5164305;27;20039;-56
2021/12/08 00:28:17;;;;;;;2.83;1.88;;;8.70;79.50;;;;;;5156332;27;20046;-54
2021/12/08 00:48:05;;;;;;;2.20;1.90;;;8.70;79.50;;;;;;5173701;27;20046;-54
2021/12/08 00:50:34;;;;;;;3.40;2.00;;;8.70;79.50;;;;;;5145296;27;20058;-53
2021/12/08 00:53:01;;;;;;;3.03;1.98;;;8.70;79.50;;;;;;5155117;27;20050;-57
2021/12/08 00:55:28;;;;;;;2.63;2.00;;;8.70;79.50;;;;;;5175133;27;20038;-57
2021/12/08 00:57:54;;;;;;;1.75;1.50;;;8.70;79.60;;;;;;5141314;27;20058;-58
2021/12/08 01:00:27;;;;;;;2.58;1.92;;;8.70;79.60;;;;;;5128425;27;20066;-53
2021/12/08 01:02:53;;;;;;;3.05;1.90;;;8.70;79.60;;;;;;5157126;27;20482;-58
2021/12/08 01:05:22;;;;;;;3.05;1.80;;;8.70;79.60;;;;;;5147122;27;20053;-57
2021/12/08 01:07:48;;;;;;;2.15;1.63;;;8.70;79.60;;;;;;5119177;27;20118;-56
2021/12/08 01:10:20;;;;;;;2.22;1.73;;;8.70;79.60;;;;;;5137146;27;20131;-54
2021/12/08 01:12:46;;;;;;;2.50;1.95;;;8.70;79.60;;;;;;5155232;27;20095;-58
2021/12/08 01:15:13;;;;;;;2.10;1.80;;;8.70;79.60;;;;;;5174418;27;20038;-56
2021/12/08 01:17:40;;;;;;;2.13;1.92;;;8.70;79.60;;;;;;5148611;27;20091;-57
2021/12/08 01:20:09;;;;;;;4.10;1.88;;;8.70;79.60;;;;;;5136866;27;20513;-57
2021/12/08 01:22:35;;;;;;;4.13;1.95;;;8.70;79.60;;;;;;5135900;27;20152;-57
2021/12/08 01:25:01;;;;;;;2.95;1.95;;;8.70;79.70;;;;;;5135928;27;20118;-55
2021/12/08 01:27:27;;;;;;;2.05;1.80;;;8.60;79.60;;;;;;5147002;27;20061;-57
2021/12/08 01:29:52;;;;;;;2.40;1.80;;;8.70;79.70;;;;;;5153023;27;20043;-58
2021/12/08 01:32:19;;;;;;;2.60;2.00;;;8.70;80.40;;;;;;5135615;27;20371;-56
2021/12/08 01:34:46;;;;;;;2.47;1.90;;;8.70;79.70;;;;;;5135569;27;20439;-59
2021/12/08 01:37:11;;;;;;;2.58;1.90;;;8.70;80.30;;;;;;5135647;27;20047;-58
2021/12/08 01:39:37;;;;;;;2.20;2.00;;;8.70;79.70;;;;;;5154243;27;20393;-58
2021/12/08 01:42:05;;;;;;;2.13;1.70;;;8.70;79.80;;;;;;5154569;27;20042;-59
2021/12/08 01:47:15;;;;;;;2.53;1.80;;;8.70;79.80;;;;;;5134475;27;20050;-58
2021/12/08 01:49:40;;;;;;;2.67;2.08;;;8.70;79.80;;;;;;5134572;27;20057;-57
2021/12/08 01:52:06;;;;;;;2.20;1.67;;;8.70;79.80;;;;;;5152990;27;20034;-56
2021/12/08 01:54:32;;;;;;;2.00;1.80;;;8.60;79.80;;;;;;5163383;27;20053;-56
2021/12/08 01:57:00;;;;;;;2.83;1.85;;;8.70;79.90;;;;;;5121072;27;20524;-55
2021/12/08 01:59:26;;;;;;;2.13;1.60;;;8.70;79.90;;;;;;5137148;27;20058;-55
2021/12/08 02:01:51;;;;;;;2.45;1.67;;;8.70;79.80;;;;;;5155052;27;20051;-55
2021/12/08 02:04:17;;;;;;;2.20;1.63;;;8.70;79.80;;;;;;5154283;27;20133;-56
2021/12/08 02:06:45;;;;;;;1.75;1.60;;;8.70;79.80;;;;;;5153962;27;20043;-55
2021/12/08 02:09:15;;;;;;;1.95;1.73;;;8.60;79.80;;;;;;5134542;27;20084;-55
2021/12/08 02:11:45;;;;;;;2.00;1.60;;;8.70;79.80;;;;;;5134749;27;20502;-54
2021/12/08 02:14:11;;;;;;;1.75;1.58;;;8.70;79.90;;;;;;5135849;27;20047;-56
2021/12/08 02:16:37;;;;;;;2.17;1.60;;;8.70;79.80;;;;;;5134709;27;20046;-55
2021/12/08 02:19:04;;;;;;;2.17;1.90;;;8.70;79.80;;;;;;5144406;27;20046;-55
2021/12/08 02:21:37;;;;;;;2.30;1.80;;;8.70;79.80;;;;;;5155562;27;20435;-55
2021/12/08 02:24:08;;;;;;;1.95;1.60;;;8.60;79.70;;;;;;5152990;27;20054;-55
2021/12/08 02:26:35;;;;;;;2.22;1.80;;;8.60;79.70;;;;;;5138072;27;20045;-55
2021/12/08 02:29:06;;;;;;;2.95;1.60;;;8.70;79.80;;;;;;5134964;27;20089;-55
2021/12/08 02:31:43;;;;;;;2.78;1.80;;;8.70;79.70;;;;;;5142502;27;20465;-52
2021/12/08 02:47:55;;;;;;;2.55;1.88;;;8.70;79.70;;;;;;5144417;27;20089;-51
2021/12/08 02:50:31;;;;;;;1.77;1.67;;;8.70;79.70;;;;;;5158665;27;20050;-56
2021/12/08 02:52:58;;;;;;;2.10;1.50;;;8.60;79.60;;;;;;5159206;27;20080;-51
2021/12/08 02:55:26;;;;;;;2.05;1.85;;;8.60;79.60;;;;;;5157076;27;20129;-55
2021/12/08 02:57:52;;;;;;;1.95;1.65;;;8.70;79.70;;;;;;5177307;27;20037;-55
2021/12/08 03:00:23;;;;;;;1.60;1.50;;;8.60;79.70;;;;;;5151574;27;20482;-55
2021/12/08 03:02:50;;;;;;;2.35;1.40;;;8.70;79.70;;;;;;5157406;27;20030;-56
2021/12/08 03:05:16;;;;;;;2.75;1.60;;;8.70;79.70;;;;;;5145155;27;20027;-53
2021/12/08 03:07:42;;;;;;;2.03;1.38;;;8.60;79.70;;;;;;5175714;27;20106;-55
2021/12/08 03:10:16;;;;;;;3.10;1.60;;;8.60;79.60;;;;;;5149663;27;20042;-53
2021/12/08 03:12:42;;;;;;;2.20;1.67;;;8.70;79.70;;;;;;5121345;27;20428;-55
2021/12/08 03:15:10;;;;;;;1.70;1.60;;;8.60;79.60;;;;;;5146413;27;20483;-55
2021/12/08 03:17:36;;;;;;;1.80;1.40;;;8.70;79.70;;;;;;5126019;27;20082;-56
2021/12/08 03:20:06;;;;;;;2.25;1.70;;;8.60;79.60;;;;;;5137778;27;20133;-56
2021/12/08 03:22:34;;;;;;;1.63;1.45;;;8.60;79.60;;;;;;5137421;27;20043;-56
2021/12/08 03:25:01;;;;;;;2.33;1.52;;;8.60;79.60;;;;;;5156919;27;20043;-54
2021/12/08 03:27:33;;;;;;;2.03;1.60;;;8.60;79.60;;;;;;5140109;27;20102;-52
2021/12/08 03:30:12;;;;;;;2.70;1.60;;;8.70;79.70;;;;;;5138125;27;20046;-56
2021/12/08 03:32:39;;;;;;;2.38;1.60;;;8.70;79.70;;;;;;5164724;27;20083;-52
2021/12/08 03:35:12;;;;;;;1.50;1.40;;;8.60;79.70;;;;;;5158215;27;20046;-54
2021/12/08 03:37:45;;;;;;;1.80;1.60;;;8.70;79.70;;;;;;5156271;27;20042;-53
2021/12/08 03:40:20;;;;;;;2.67;1.90;;;8.60;79.60;;;;;;5158033;27;20058;-55
2021/12/08 03:42:48;;;;;;;1.88;1.65;;;8.70;79.70;;;;;;5157892;27;20049;-55
2021/12/08 03:45:18;;;;;;;2.10;1.60;;;8.70;79.70;;;;;;5130115;27;20050;-55
2021/12/08 03:47:47;;;;;;;1.73;1.50;;;8.70;79.80;;;;;;5137876;27;20100;-55
2021/12/08 03:50:15;;;;;;;1.80;1.40;;;8.70;79.70;;;;;;5144539;27;20046;-55
2021/12/08 03:52:42;;;;;;;1.67;1.55;;;8.60;79.60;;;;;;5146379;27;20054;-56
2021/12/08 03:55:11;;;;;;;2.30;1.70;;;8.70;79.70;;;;;;5119072;27;20046;-56
2021/12/08 03:57:37;;;;;;;1.58;1.48;;;8.60;79.70;;;;;;5139078;27;20046;-55
2021/12/08 04:00:09;;;;;;;1.63;1.50;;;8.70;79.70;;;;;;5156387;27;20436;-55
2021/12/08 04:02:35;;;;;;;1.90;1.60;;;8.70;79.70;;;;;;5157856;27;20046;-55
2021/12/08 04:05:02;;;;;;;1.70;1.55;;;8.60;79.60;;;;;;5138964;27;20061;-55
2021/12/08 04:07:28;;;;;;;1.70;1.50;;;8.60;79.70;;;;;;5137000;27;20057;-53
2021/12/08 04:09:54;;;;;;;2.38;1.60;;;8.70;79.70;;;;;;5152270;27;20141;-57
2021/12/08 04:12:21;;;;;;;2.42;1.40;;;8.70;79.70;;;;;;5157601;27;20081;-56
2021/12/08 04:14:56;;;;;;;2.30;1.60;;;8.70;79.70;;;;;;5139082;27;20541;-56
2021/12/08 04:17:30;;;;;;;1.83;1.73;;;8.70;79.70;;;;;;5143831;27;20062;-54
2021/12/08 04:19:59;;;;;;;1.88;1.67;;;8.70;79.70;;;;;;5142100;27;20038;-56
2021/12/08 04:22:33;;;;;;;1.90;1.50;;;8.60;79.70;;;;;;5137220;27;20057;-53
2021/12/08 04:25:03;;;;;;;1.48;1.38;;;8.60;79.70;;;;;;5120772;27;20424;-55
2021/12/08 04:27:33;;;;;;;2.30;1.60;;;8.70;79.70;;;;;;5137199;27;20047;-56
2021/12/08 04:30:00;;;;;;;2.75;1.80;;;8.60;79.70;;;;;;5152721;27;20098;-52
2021/12/08 04:32:29;;;;;;;1.92;1.67;;;8.60;79.70;;;;;;5155737;27;20078;-56
2021/12/08 04:34:59;;;;;;;1.85;1.65;;;8.70;79.70;;;;;;5149013;27;20065;-54
2021/12/08 04:37:31;;;;;;;1.83;1.60;;;8.70;79.70;;;;;;5136923;27;20502;-53
2021/12/08 04:43:06;;;;;;;1.67;1.38;;;8.60;79.60;;;;;;5154740;27;20528;-53
2021/12/08 04:46:04;;;;;;;1.40;1.25;;;8.60;79.70;;;;;;5147727;27;20078;-57
2021/12/08 05:02:19;;;;;;;1.67;1.58;;;8.60;79.70;;;;;;5058652;28;20143;-56
2021/12/08 05:09:55;;;;;;;2.10;1.67;;;8.60;79.70;;;;;;5069926;28;20447;-57
2021/12/08 05:12:30;;;;;;;2.15;1.75;;;8.60;79.70;;;;;;5053627;28;20756;-58
2021/12/08 05:15:05;;;;;;;;;;;8.60;79.70;;;;;;5087198;28;20067;-58
2021/12/08 05:17:44;;;;;;;1.95;1.40;;;8.60;79.60;;;;;;5088188;28;20324;-57
2021/12/08 05:20:15;;;;;;;1.77;1.50;;;8.60;79.70;;;;;;5053934;28;20049;-57
2021/12/08 05:22:47;;;;;;;1.77;1.63;;;8.60;79.80;;;;;;5056507;28;20048;-58
2021/12/08 05:25:16;;;;;;;2.15;1.50;;;8.60;79.80;;;;;;5071761;28;20138;-58
2021/12/08 05:27:46;;;;;;;2.55;1.70;;;8.60;79.80;;;;;;5073684;28;20052;-58
2021/12/08 05:30:19;;;;;;;1.95;1.70;;;8.60;79.80;;;;;;5061172;28;20056;-58
2021/12/08 05:32:46;;;;;;;1.75;1.50;;;8.60;79.70;;;;;;5090356;28;20411;-57
2021/12/08 05:35:16;;;;;;;2.25;1.77;;;8.60;79.80;;;;;;5072203;28;20516;-57
2021/12/08 05:37:43;;;;;;;1.67;1.48;;;8.60;79.70;;;;;;5111354;27;20570;-57
2021/12/08 05:40:17;;;;;;;1.40;1.27;;;8.60;79.70;;;;;;5135395;27;20042;-57
2021/12/08 05:42:43;;;;;;;1.90;1.60;;;8.70;79.90;;;;;;5118357;27;20039;-56
2021/12/08 05:45:14;;;;;;;1.83;1.73;;;8.60;79.70;;;;;;5137741;27;20043;-56
2021/12/08 05:47:41;;;;;;;3.65;1.85;;;8.70;79.80;;;;;;5135146;27;20102;-54
2021/12/08 05:50:09;;;;;;;1.73;1.58;;;8.60;79.70;;;;;;5135498;27;20577;-58
2021/12/08 05:52:36;;;;;;;1.80;1.70;;;8.60;79.80;;;;;;5135512;27;20111;-58
2021/12/08 05:55:03;;;;;;;1.60;1.50;;;8.70;79.80;;;;;;5120095;27;20038;-58
2021/12/08 05:57:36;;;;;;;2.13;1.88;;;8.70;79.80;;;;;;5135641;27;20042;-58
2021/12/08 06:00:09;;;;;;;2.03;1.60;;;8.60;79.80;;;;;;5139941;27;20043;-59
2021/12/08 06:02:37;;;;;;;1.75;1.33;;;8.70;79.80;;;;;;5154407;27;20050;-57
2021/12/08 06:05:08;;;;;;;1.77;1.67;;;8.60;79.80;;;;;;5150296;27;20114;-56
2021/12/08 06:07:35;;;;;;;1.70;1.60;;;8.60;79.70;;;;;;5136232;27;20047;-57
2021/12/08 06:10:05;;;;;;;2.17;1.45;;;8.60;79.70;;;;;;5139858;27;20038;-58
2021/12/08 06:12:31;;;;;;;1.85;1.70;;;8.70;79.80;;;;;;5123313;27;20050;-51
2021/12/08 06:14:57;;;;;;;1.60;1.50;;;8.70;79.80;;;;;;5118453;27;20050;-56
2021/12/08 06:17:29;;;;;;;1.40;1.30;;;8.70;79.80;;;;;;5136665;27;20039;-56
2021/12/08 06:19:56;;;;;;;2.25;1.50;;;8.60;79.70;;;;;;5139162;27;20051;-54
2021/12/08 06:22:24;;;;;;;1.98;1.48;;;8.60;79.80;;;;;;5158348;27;20117;-52
2021/12/08 06:24:50;;;;;;;1.35;1.25;;;8.70;79.80;;;;;;5142747;27;20046;-55
2021/12/08 06:27:16;;;;;;;4.00;1.92;;;8.70;79.80;;;;;;5158264;27;20193;-55
2021/12/08 06:29:43;;;;;;;1.85;1.55;;;8.70;79.80;;;;;;5160216;27;20489;-50
2021/12/08 06:32:11;;;;;;;1.75;1.60;;;8.60;79.70;;;;;;5145503;27;20051;-54
2021/12/08 06:34:39;;;;;;;2.55;1.50;;;8.70;79.80;;;;;;5139709;27;20105;-55
2021/12/08 06:37:12;;;;;;;2.03;1.70;;;8.60;79.80;;;;;;5164376;27;20515;-53
2021/12/08 06:39:47;;;;;;;1.65;1.55;;;8.70;79.90;;;;;;5156560;27;20061;-54
2021/12/08 06:42:24;;;;;;;1.70;1.60;;;8.60;79.80;;;;;;5139098;27;20216;-54
2021/12/08 06:44:53;;;;;;;2.17;1.77;;;8.70;79.90;;;;;;5141887;27;20502;-55
2021/12/08 06:47:22;;;;;;;2.55;1.70;;;8.70;79.80;;;;;;5159283;27;20057;-51
2021/12/08 06:49:51;;;;;;;2.20;1.75;;;8.70;79.90;;;;;;5153381;27;20122;-53
2021/12/08 06:52:24;;;;;;;1.67;1.58;;;8.70;80.50;;;;;;5138036;27;20058;-52
2021/12/08 06:55:00;;;;;;;1.92;1.67;;;8.70;79.90;;;;;;5156247;27;20098;-57
2021/12/08 06:57:39;;;;;;;2.10;1.80;;;8.60;79.80;;;;;;5159370;27;20045;-58
2021/12/08 07:00:54;;;;;;;2.58;1.73;;;8.60;79.80;;;;;;5156657;27;20065;-56
2021/12/08 07:03:32;;;;;;;2.00;1.60;;;8.70;79.80;;;;;;5158873;27;20042;-56
2021/12/08 07:06:12;;;;;;;1.60;1.50;;;8.60;79.80;;;;;;5150190;27;20054;-56
2021/12/08 07:08:52;;;;;;;2.35;1.77;;;8.60;80.40;;;;;;5138573;27;20114;-52
2021/12/08 07:11:21;;;;;;;1.63;1.35;;;8.70;79.90;;;;;;5139538;27;20078;-57
2021/12/08 07:13:50;;;;;;;1.73;1.63;;;8.60;79.80;;;;;;5137919;27;20099;-59
2021/12/08 07:16:21;;;;;;;2.00;1.67;;;8.60;79.80;;;;;;5156907;27;20050;-51
2021/12/08 07:18:54;;;;;;;1.83;1.70;;;8.70;79.90;;;;;;5157861;27;20081;-49
2021/12/08 07:21:27;;;;;;;1.88;1.40;;;8.60;79.80;;;;;;5156195;27;20089;-51
2021/12/08 07:24:07;;;;;;;1.38;1.27;;;8.60;79.80;;;;;;5158397;27;20054;-57
2021/12/08 07:26:36;;;;;;;1.90;1.75;;;8.60;79.80;;;;;;5157918;27;20062;-57
2021/12/08 07:29:05;;;;;;;1.60;1.42;;;8.70;79.90;;;;;;5156221;27;20057;-50
2021/12/08 07:31:39;;;;;;;1.65;1.50;;;8.70;79.90;;;;;;5140232;27;20046;-48
2021/12/08 07:34:07;;;;;;;2.05;1.90;;;8.70;79.90;;;;;;5136692;27;20055;-53
2021/12/08 07:36:36;;;;;;;1.70;1.50;;;8.60;79.80;;;;;;5140705;27;20064;-51
2021/12/08 07:39:07;;;;;;;1.77;1.63;;;8.70;79.90;;;;;;5176878;27;20423;-53
2021/12/08 07:41:37;;;;;;;2.00;1.50;;;8.70;79.90;;;;;;5141141;27;20170;-55
2021/12/08 07:44:08;;;;;;;1.65;1.40;;;8.60;79.80;;;;;;5136934;27;20075;-54
2021/12/08 07:46:53;;;;;;;6.18;3.30;;;8.70;79.90;;;;;;5154921;27;20053;-58
2021/12/08 07:49:41;;;;;;;10.90;3.83;;;8.60;79.50;;;;;;5176896;27;20385;-57
2021/12/08 07:52:22;;;;;;;8.98;3.88;;;8.50;79.70;;;;;;5142032;27;20049;-57
2021/12/08 07:54:49;;;;;;;13.32;3.60;;;8.30;80.10;;;;;;5154986;27;20070;-57
2021/12/08 07:57:29;;;;;;;6.70;3.50;;;8.30;80.30;;;;;;5157592;27;20057;-57
2021/12/08 08:00:00;;;;;;;8.15;3.38;;;8.30;80.60;;;;;;5151234;27;20482;-57
2021/12/08 08:02:26;;;;;;;7.82;3.30;;;8.40;80.40;;;;;;5137728;27;20373;-57
2021/12/08 08:04:56;;;;;;;5.90;3.22;;;8.40;80.40;;;;;;5119716;27;20043;-57
2021/12/08 08:07:22;;;;;;;7.15;3.40;;;8.40;80.40;;;;;;5145112;27;20489;-57
2021/12/08 08:09:59;;;;;;;8.50;3.20;;;8.40;80.30;;;;;;5156687;27;20488;-56
2021/12/08 08:12:27;;;;;;;6.32;2.83;;;8.40;80.20;;;;;;5148292;27;20058;-55
2021/12/08 08:14:56;;;;;;;4.75;3.15;;;8.50;80.30;;;;;;5141032;27;20117;-57
2021/12/08 08:17:31;;;;;;;10.05;3.28;;;8.50;80.30;;;;;;5176289;27;20413;-57
2021/12/08 08:20:04;;;;;;;6.03;2.83;;;8.60;80.30;;;;;;5171101;27;20027;-57
2021/12/08 08:22:30;;;;;;;4.82;2.97;;;8.50;80.20;;;;;;5136334;27;20050;-57
2021/12/08 08:25:00;;;;;;;5.13;2.63;;;8.50;80.20;;;;;;5141311;27;20669;-58
2021/12/08 08:27:27;;;;;;;5.28;2.67;;;8.50;80.10;;;;;;5157404;27;20147;-56
2021/12/08 08:29:55;;;;;;;6.32;3.40;;;8.50;80.10;;;;;;5136498;27;20517;-57
2021/12/08 08:32:28;;;;;;;4.38;3.10;;;8.50;80.00;;;;;;5119823;27;20057;-57
2021/12/08 08:34:59;;;;;;;3.58;2.88;;;8.50;80.10;;;;;;5137368;27;20043;-56
2021/12/08 08:37:25;;;;;;;4.30;2.58;;;8.50;80.00;;;;;;5136186;27;20046;-57
2021/12/08 08:39:55;;;;;;;4.70;2.85;;;8.60;80.00;;;;;;5139293;27;20065;-57
2021/12/08 08:42:28;;;;;;;4.85;2.85;;;8.60;80.00;;;;;;5156615;27;20046;-57
2021/12/08 08:45:03;;;;;;;4.50;2.58;;;8.60;80.70;;;;;;5155020;27;20042;-57
2021/12/08 08:47:33;;;;;;;6.38;2.50;;;8.60;80.00;;;;;;5157107;27;20474;-57
2021/12/08 08:49:59;;;;;;;6.00;2.75;;;8.60;80.00;;;;;;5150633;27;20051;-57
2021/12/08 08:52:36;;;;;;;5.00;2.80;;;8.70;80.00;;;;;;5135943;27;20096;-56
2021/12/08 08:55:26;;;;;;;3.95;2.55;;;8.60;79.90;;;;;;5138090;27;20085;-58
2021/12/08 08:57:52;;;;;;;6.15;2.60;;;8.60;79.90;;;;;;5135569;27;20053;-58
2021/12/08 09:00:17;;;;;;;3.70;2.40;;;8.60;79.90;;;;;;5154460;27;20050;-58
2021/12/08 09:02:43;;;;;;;4.03;2.40;;;8.60;79.90;;;;;;5156329;27;20099;-58
2021/12/08 09:05:19;;;;;;;3.60;2.72;;;8.60;80.00;;;;;;5138464;27;20046;-58
2021/12/08 09:07:49;;;;;;;4.70;2.67;;;8.60;80.00;;;;;;5136895;27;20074;-58
2021/12/08 09:10:27;;;;;;;5.15;2.70;;;8.50;79.90;;;;;;5142098;27;20053;-58
2021/12/08 09:13:05;;;;;;;2.92;2.25;;;8.60;79.90;;;;;;5156406;27;20081;-57
2021/12/08 09:15:41;;;;;;;4.28;2.60;;;8.60;80.00;;;;;;5146935;27;20083;-58
2021/12/08 09:18:19;;;;;;;3.15;2.28;;;8.60;79.90;;;;;;5143095;27;20042;-58
2021/12/08 09:21:12;;;;;;;2.72;2.10;;;8.60;79.90;;;;;;5155969;27;20069;-58
2021/12/08 09:23:45;;;;;;;2.30;2.10;;;8.60;80.00;;;;;;5163495;27;20082;-58
2021/12/08 09:26:15;;;;;;;2.85;2.28;;;8.60;80.00;;;;;;5168682;27;20459;-58
2021/12/08 09:29:13;;;;;;;3.38;2.40;;;8.60;80.00;;;;;;5154144;27;20057;-58
2021/12/08 09:31:44;;;;;;;2.67;2.47;;;8.60;79.90;;;;;;5038346;28;20143;-57
2021/12/08 09:34:16;;;;;;;2.75;2.03;;;8.60;79.90;;;;;;5032785;28;20067;-58
2021/12/08 09:36:52;;;;;;;3.08;2.35;;;8.60;80.00;;;;;;5050321;28;20076;-58
2021/12/08 09:39:24;;;;;;;;;;;8.60;80.00;;;;;;5051551;28;20133;-56
2021/12/08 09:42:06;;;;;;;2.72;2.03;;;8.60;79.90;;;;;;5069293;28;19931;-54
2021/12/08 09:44:37;;;;;;;3.58;2.25;;;8.60;80.00;;;;;;5060779;28;20099;-58
2021/12/08 09:47:03;;;;;;;2.78;2.10;;;8.60;80.00;;;;;;5040857;28;20555;-58
2021/12/08 09:49:29;;;;;;;2.63;1.92;;;8.60;80.00;;;;;;5057686;28;20060;-57
2021/12/08 09:51:59;;;;;;;3.60;2.00;;;8.60;80.00;;;;;;5050016;28;20501;-55
2021/12/08 09:54:25;;;;;;;2.83;1.80;;;8.60;80.20;;;;;;5050643;28;20049;-57
2021/12/08 09:56:53;;;;;;;3.08;2.20;;;8.60;80.00;;;;;;5057618;28;20036;-58
2021/12/08 09:59:22;;;;;;;4.38;2.47;;;8.60;80.00;;;;;;5053779;28;20527;-58
2021/12/08 10:01:48;;;;;;;2.80;2.17;;;8.60;80.00;;;;;;5065289;28;20118;-58
2021/12/08 10:04:15;;;;;;;3.03;2.17;;;8.60;80.00;;;;;;5045038;28;20148;-57
2021/12/08 10:06:49;;;;;;;3.50;2.10;;;8.60;80.00;;;;;;5058302;28;20037;-57
2021/12/08 10:09:20;;;;;;;2.15;1.95;;;8.60;80.00;;;;;;5135953;27;20054;-58
2021/12/08 10:11:48;;;;;;;3.40;2.10;;;8.60;80.00;;;;;;5134347;27;20050;-55
2021/12/08 10:14:13;;;;;;;4.20;2.35;;;8.60;80.00;;;;;;5139955;27;20453;-57
2021/12/08 10:16:41;;;;;;;2.90;2.03;;;8.60;80.00;;;;;;5173595;27;20089;-57
2021/12/08 10:19:10;;;;;;;2.85;1.83;;;8.60;80.00;;;;;;5148560;27;20071;-54
2021/12/08 10:21:41;;;;;;;2.95;1.98;;;8.60;80.00;;;;;;5153721;27;20071;-57
2021/12/08 10:24:21;;;;;;;2.88;2.22;;;8.60;80.00;;;;;;5153999;27;20378;-58
2021/12/08 10:26:49;;;;;;;3.35;1.92;;;8.60;80.00;;;;;;5154663;27;20038;-58
2021/12/08 10:29:14;;;;;;;2.90;1.70;;;8.60;80.00;;;;;;5150633;27;20057;-57
2021/12/08 10:31:45;;;;;;;2.90;1.98;;;8.60;80.00;;;;;;5152232;27;20413;-58
2021/12/08 10:36:45;;;;;;;2.60;1.80;;;8.60;80.00;;;;;;5157839;27;20370;-57
2021/12/08 10:39:23;;;;;;;2.97;2.10;;;8.60;80.00;;;;;;5130328;27;20050;-57
2021/12/08 10:42:06;;;;;;;2.80;1.80;;;8.60;80.00;;;;;;5148539;27;20473;-57
2021/12/08 10:44:56;;;;;;;3.53;1.77;;;8.60;80.00;;;;;;5168679;27;20576;-57
2021/12/08 10:47:35;;;;;;;2.85;2.10;;;8.60;80.00;;;;;;5149199;27;20062;-57
2021/12/08 10:55:23;;;;;;;2.78;1.83;;;8.60;80.10;;;;;;5150289;27;20050;-58
2021/12/08 10:57:54;;;;;;;2.13;1.75;;;8.60;80.00;;;;;;5169472;27;20504;-55
2021/12/08 11:00:46;;;;;;;2.85;1.92;;;8.60;80.00;;;;;;5154275;27;20043;-55
2021/12/08 11:03:13;;;;;;;2.50;1.65;;;8.60;80.00;;;;;;5150617;27;20296;-57
2021/12/08 11:05:54;;;;;;;2.80;1.80;;;8.60;80.10;;;;;;5143587;27;20098;-57
2021/12/08 11:08:38;;;;;;;1.48;1.33;;;8.60;80.00;;;;;;5152673;27;20553;-55
2021/12/08 11:11:20;;;;;;;2.50;1.65;;;8.60;80.00;;;;;;5152485;27;20053;-55
2021/12/08 11:13:50;;;;;;;1.67;1.42;;;8.60;80.00;;;;;;5153016;27;20046;-57
2021/12/08 11:16:29;;;;;;;2.53;1.70;;;8.60;80.10;;;;;;5134076;27;20095;-57
2021/12/08 11:19:01;;;;;;;2.75;1.30;;;8.60;80.10;;;;;;5152940;27;20537;-57
2021/12/08 11:21:36;;;;;;;1.80;1.40;;;8.60;80.10;;;;;;5133421;27;20531;-56
2021/12/08 11:24:20;;;;;;;2.00;1.40;;;8.60;80.10;;;;;;5134471;27;20494;-57
2021/12/08 11:26:49;;;;;;;1.88;1.48;;;8.60;80.10;;;;;;5134116;27;20054;-56
2021/12/08 11:29:24;;;;;;;3.42;1.83;;;8.60;80.10;;;;;;5152968;27;20531;-57
2021/12/08 11:31:59;;;;;;;2.35;1.67;;;8.60;80.00;;;;;;5134021;27;20079;-56
2021/12/08 11:34:43;;;;;;;1.40;1.20;;;8.60;80.00;;;;;;5133151;27;20216;-57
2021/12/08 11:37:16;;;;;;;2.67;1.83;;;8.70;80.00;;;;;;5152544;27;20047;-58
2021/12/08 11:39:43;;;;;;;2.30;1.50;;;8.60;80.10;;;;;;5152613;27;20422;-57
2021/12/08 11:42:21;;;;;;;2.67;1.40;;;8.60;80.10;;;;;;5153081;27;20049;-58
2021/12/08 11:44:55;;;;;;;1.63;1.40;;;8.70;80.10;;;;;;5132735;27;20100;-58
2021/12/08 11:47:27;;;;;;;2.97;1.60;;;8.60;80.00;;;;;;5133603;27;20122;-56
2021/12/08 11:49:56;;;;;;;2.92;1.40;;;8.60;80.10;;;;;;5132754;27;20058;-56
2021/12/08 11:52:29;;;;;;;1.95;1.38;;;8.60;80.10;;;;;;5153149;27;20444;-56
2021/12/08 11:55:02;;;;;;;1.80;1.40;;;8.60;80.00;;;;;;5152036;27;20050;-56
2021/12/08 11:57:37;;;;;;;1.52;1.38;;;8.60;80.10;;;;;;5132881;27;20054;-56
2021/12/08 12:00:26;;;;;;;2.40;1.55;;;8.70;80.10;;;;;;5151300;27;20133;-56
2021/12/08 12:03:07;;;;;;;2.63;1.50;;;8.60;80.00;;;;;;5132977;27;20054;-57
2021/12/08 12:05:40;;;;;;;1.98;1.42;;;8.60;80.10;;;;;;5133092;27;20062;-56
2021/12/08 12:08:10;;;;;;;2.28;1.30;;;8.70;80.10;;;;;;5151598;27;20086;-55
2021/12/08 12:10:39;;;;;;;2.47;1.50;;;8.70;80.10;;;;;;5132728;27;20047;-58
2021/12/08 12:13:10;;;;;;;2.67;1.30;;;8.60;80.10;;;;;;5132938;27;20047;-55
2021/12/08 12:15:40;;;;;;;3.38;1.48;;;8.60;80.10;;;;;;5132199;27;20050;-57
2021/12/08 12:18:06;;;;;;;1.98;1.23;;;8.70;80.10;;;;;;5132862;27;20846;-56
2021/12/08 12:20:54;;;;;;;2.20;1.48;;;8.60;80.00;;;;;;5132287;27;20050;-56
2021/12/08 12:23:30;;;;;;;1.83;1.27;;;8.70;80.10;;;;;;5151457;27;20058;-57
2021/12/08 12:26:04;;;;;;;1.63;1.33;;;8.70;80.10;;;;;;5151556;27;20042;-57
2021/12/08 12:29:08;;;;;;;2.42;1.40;;;8.60;80.10;;;;;;5132605;27;20042;-57
2021/12/08 12:31:52;;;;;;;1.20;1.10;;;8.70;80.00;;;;;;5129515;27;20086;-58
2021/12/08 12:34:23;;;;;;;1.35;1.10;;;8.60;80.10;;;;;;5131967;27;20408;-56
2021/12/08 12:36:49;;;;;;;1.67;1.52;;;8.60;80.10;;;;;;5132483;27;20130;-57
2021/12/08 12:39:18;;;;;;;2.72;1.30;;;8.60;80.00;;;;;;5151133;27;20047;-55
2021/12/08 12:41:56;;;;;;;1.58;1.27;;;8.70;80.00;;;;;;5131467;27;20072;-57
2021/12/08 12:44:23;;;;;;;2.70;1.58;;;8.70;80.10;;;;;;5150497;27;20181;-55
2021/12/08 12:47:09;;;;;;;1.30;1.20;;;8.70;80.10;;;;;;5151227;27;20085;-53
2021/12/08 12:49:40;;;;;;;1.67;1.23;;;8.70;80.00;;;;;;5150760;27;20062;-57
2021/12/08 12:52:09;;;;;;;1.23;1.00;;;8.70;80.10;;;;;;5151774;27;20046;-56
2021/12/08 12:54:35;;;;;;;2.15;1.30;;;8.70;80.10;;;;;;5150494;27;20066;-55
2021/12/08 12:57:06;;;;;;;2.95;1.40;;;8.70;80.00;;;;;;5149985;27;20065;-56
2021/12/08 12:59:50;;;;;;;2.35;1.40;;;8.70;80.00;;;;;;5150908;27;20039;-57
2021/12/08 13:02:24;;;;;;;2.83;1.30;;;8.70;80.00;;;;;;5150579;27;20050;-55
2021/12/08 13:05:15;;;;;;;1.48;1.38;;;8.80;80.10;;;;;;5151879;27;20362;-56
2021/12/08 13:07:56;;;;;;;1.40;1.25;;;8.70;80.00;;;;;;5131106;27;20065;-57
2021/12/08 13:10:32;;;;;;;3.15;1.30;;;8.70;80.00;;;;;;5150178;27;20255;-56
2021/12/08 13:13:11;;;;;;;1.98;1.45;;;8.70;80.00;;;;;;5132107;27;20645;-56
2021/12/08 13:15:41;;;;;;;1.58;1.27;;;8.70;80.00;;;;;;5131987;27;20043;-57
2021/12/08 13:18:12;;;;;;;1.23;1.13;;;8.70;80.00;;;;;;5129519;27;20086;-58
2021/12/08 13:20:55;;;;;;;1.48;1.20;;;8.70;80.00;;;;;;5131502;27;20548;-57
2021/12/08 13:23:23;;;;;;;2.20;1.58;;;8.70;80.00;;;;;;5150457;27;20111;-56
2021/12/08 13:28:46;;;;;;;2.70;1.40;;;8.70;80.00;;;;;;5130672;27;20438;-57
2021/12/08 13:33:59;;;;;;;4.00;1.40;;;8.70;80.00;;;;;;5131456;27;20486;-57
2021/12/08 13:36:33;;;;;;;1.92;1.20;;;8.70;80.00;;;;;;5131246;27;20058;-57
2021/12/08 13:38:59;;;;;;;2.15;1.30;;;8.70;80.00;;;;;;5131450;27;20058;-57
2021/12/08 13:41:28;;;;;;;3.08;1.35;;;8.70;80.00;;;;;;5131414;27;20544;-57
2021/12/08 13:43:55;;;;;;;2.33;1.30;;;8.70;80.00;;;;;;5130735;27;20062;-58
2021/12/08 13:46:41;;;;;;;2.08;1.35;;;8.70;80.00;;;;;;5149666;27;20041;-58
2021/12/08 13:49:27;;;;;;;;;;;8.70;80.00;;;;;;5150483;27;20070;-58
2021/12/08 13:52:07;;;;;;;1.57;1.30;;;8.70;80.00;;;;;;5150453;27;19980;-59
2021/12/08 13:54:34;;;;;;;2.38;1.17;;;8.70;80.00;;;;;;5152621;27;20343;-57
2021/12/08 13:57:03;;;;;;;2.33;1.23;;;8.70;80.00;;;;;;5134893;27;20064;-56
2021/12/08 13:59:45;;;;;;;2.17;1.23;;;8.70;80.00;;;;;;5137286;27;20147;-59
2021/12/08 14:02:49;;;;;;;1.38;1.13;;;8.70;80.00;;;;;;5154321;27;20054;-57
2021/12/08 14:05:26;;;;;;;4.47;2.00;;;8.70;80.00;;;;;;5155738;27;20038;-59
2021/12/08 14:07:56;;;;;;;3.15;1.80;;;8.70;79.70;;;;;;5174494;27;20049;-58
2021/12/08 14:10:33;;;;;;;3.90;1.92;;;8.70;79.80;;;;;;5174285;27;20065;-59
2021/12/08 14:13:15;;;;;;;2.97;1.77;;;8.70;79.80;;;;;;5174454;27;20043;-58
2021/12/08 14:15:41;;;;;;;3.83;1.30;;;8.60;79.80;;;;;;5137663;27;20054;-59
2021/12/08 14:18:22;;;;;;;3.60;1.52;;;8.70;79.90;;;;;;5155412;27;20504;-58
2021/12/08 14:21:20;;;;;;;4.22;1.60;;;8.70;79.80;;;;;;5155758;27;20061;-59
2021/12/08 14:23:54;;;;;;;1.63;1.30;;;8.70;79.80;;;;;;5069410;28;20083;-59
2021/12/08 14:26:22;;;;;;;4.20;2.15;;;8.70;79.90;;;;;;5051921;28;20082;-56
2021/12/08 14:28:56;;;;;;;3.83;1.92;;;8.70;79.20;;;;;;5069046;28;20441;-52
2021/12/08 14:31:51;;;;;;;5.53;1.90;;;8.60;79.20;;;;;;5068543;28;20048;-55
2021/12/08 14:34:19;;;;;;;5.47;2.10;;;8.60;79.20;;;;;;5050303;28;20143;-56